Time;durP1;ratioP1;P1;durP2;ratioP2;P2;SDS_P1;SDS_P2;PMS_P1;PMS_P2;Temp;Humidity;BMP_temperature;BMP_pressure;BME280_temperature;BME280_humidity;BME280_pressure;Samples;Min_cycle;Max_cycle;Signal;HPM_P1;HPM_P2
2023/11/10 00:01:08;;;;;;;11.40;9.60;;;;;;;3.98;100.00;101214.06;105562;1252;73945;-54
2023/11/10 00:03:35;;;;;;;11.10;8.70;;;;;;;3.99;100.00;101211.75;105528;1256;65564;-54
2023/11/10 00:06:03;;;;;;;11.90;10.30;;;;;;;4.01;100.00;101213.52;105508;1257;71446;-55
2023/11/10 00:08:31;;;;;;;11.20;10.10;;;;;;;4.03;100.00;101213.16;106557;1254;60661;-55
2023/11/10 00:10:59;;;;;;;15.40;11.60;;;;;;;4.06;100.00;101210.69;105494;1263;60296;-55
2023/11/10 00:13:26;;;;;;;11.90;10.00;;;;;;;4.09;100.00;101213.17;105606;1254;71705;-55
2023/11/10 00:15:55;;;;;;;10.70;9.60;;;;;;;4.13;100.00;101209.09;105511;1256;64658;-54
2023/11/10 00:18:22;;;;;;;12.00;10.80;;;;;;;4.16;100.00;101217.46;106389;1266;73227;-54
2023/11/10 00:20:50;;;;;;;12.70;11.10;;;;;;;4.19;100.00;101219.05;105551;1254;60862;-55
2023/11/10 00:23:18;;;;;;;9.80;8.80;;;;;;;4.23;100.00;101216.75;105448;1256;62833;-54
2023/11/10 00:25:45;;;;;;;12.50;11.20;;;;;;;4.25;100.00;101216.05;105566;1256;73951;-55
2023/11/10 00:28:13;;;;;;;10.60;9.60;;;;;;;4.26;100.00;101217.98;105555;1257;68217;-55
2023/11/10 00:30:40;;;;;;;12.20;9.60;;;;;;;4.28;100.00;101216.91;105538;1251;72375;-53
2023/11/10 00:33:07;;;;;;;10.00;9.10;;;;;;;4.30;100.00;101217.46;105475;1253;60536;-53
2023/11/10 00:35:35;;;;;;;11.00;10.00;;;;;;;4.31;100.00;101219.95;105643;1251;60418;-56
2023/11/10 00:38:03;;;;;;;13.40;12.00;;;;;;;4.32;100.00;101219.42;105585;1254;73833;-56
2023/11/10 00:40:31;;;;;;;15.30;12.50;;;;;;;4.32;100.00;101215.88;105559;1260;67060;-55
2023/11/10 00:42:58;;;;;;;14.00;12.10;;;;;;;4.31;100.00;101216.23;105590;1257;71386;-55
2023/11/10 00:45:26;;;;;;;13.40;12.00;;;;;;;4.30;100.00;101218.70;105547;1259;60530;-56
2023/11/10 00:47:53;;;;;;;12.50;11.40;;;;;;;4.27;100.00;101219.41;105507;1256;60489;-55
2023/11/10 00:50:21;;;;;;;14.30;11.40;;;;;;;4.24;100.00;101216.58;105514;1257;74328;-54
2023/11/10 00:52:48;;;;;;;12.60;10.50;;;;;;;4.21;100.00;101218.16;105689;1255;66990;-54
2023/11/10 00:55:16;;;;;;;13.10;10.30;;;;;;;4.18;100.00;101218.69;105403;1254;71763;-55
2023/11/10 00:57:43;;;;;;;11.10;9.70;;;;;;;4.16;100.00;101215.69;105278;1257;60546;-55
2023/11/10 01:00:12;;;;;;;11.90;9.60;;;;;;;4.14;100.00;101215.33;105333;1254;60633;-56
2023/11/10 01:02:39;;;;;;;11.70;9.60;;;;;;;4.15;100.00;101212.84;105841;1253;73781;-57
2023/11/10 01:05:08;;;;;;;11.70;8.60;;;;;;;4.15;100.00;101206.27;106399;1256;67210;-56
2023/11/10 01:07:36;;;;;;;11.50;10.40;;;;;;;4.17;100.00;101213.17;105451;1256;72767;-55
2023/11/10 01:10:04;;;;;;;13.10;10.50;;;;;;;4.18;100.00;101208.73;105392;1257;61885;-56
2023/11/10 01:12:31;;;;;;;11.20;9.60;;;;;;;4.19;100.00;101211.58;105941;1260;59266;-57
2023/11/10 01:14:59;;;;;;;10.90;10.00;;;;;;;4.19;100.00;101205.73;105329;1253;74183;-57
2023/11/10 01:17:27;;;;;;;10.90;9.80;;;;;;;4.20;100.00;101207.67;105409;1258;67520;-56
2023/11/10 01:19:58;;;;;;;9.40;8.60;;;;;;;4.21;100.00;101205.20;109038;1256;72713;-56
2023/11/10 01:22:29;;;;;;;13.40;9.60;;;;;;;4.22;100.00;101208.04;108297;1258;61165;-55
2023/11/10 01:24:56;;;;;;;10.20;9.30;;;;;;;4.23;100.00;101208.58;105464;1257;60492;-55
2023/11/10 01:27:25;;;;;;;12.20;9.50;;;;;;;4.23;100.00;101216.92;105436;1258;73002;-55
2023/11/10 01:29:52;;;;;;;14.20;10.10;;;;;;;4.24;100.00;101208.05;105554;1251;67061;-55
2023/11/10 01:32:20;;;;;;;12.60;11.20;;;;;;;4.24;100.00;101208.41;105428;1254;70458;-56
2023/11/10 01:34:47;;;;;;;12.40;11.10;;;;;;;4.23;100.00;101211.42;105500;1254;60499;-56
2023/11/10 01:37:15;;;;;;;13.20;11.80;;;;;;;4.21;100.00;101211.23;105264;1256;60412;-54
2023/11/10 01:39:43;;;;;;;11.90;10.10;;;;;;;4.19;100.00;101211.23;105471;1257;72598;-55
2023/11/10 01:42:11;;;;;;;12.10;9.50;;;;;;;4.19;100.00;101207.67;109042;1254;66988;-55
2023/11/10 01:44:38;;;;;;;12.50;9.10;;;;;;;4.19;100.00;101209.45;109063;1253;72763;-55
2023/11/10 01:47:06;;;;;;;11.80;10.60;;;;;;;4.20;100.00;101205.02;109169;1254;60587;-56
2023/11/10 01:49:34;;;;;;;9.20;8.30;;;;;;;4.21;100.00;101206.61;109065;1251;60230;-56
2023/11/10 01:52:02;;;;;;;11.70;8.90;;;;;;;4.23;100.00;101204.67;109015;1257;74205;-57
2023/11/10 01:54:34;;;;;;;11.30;9.60;;;;;;;4.25;100.00;101205.20;109028;1251;65947;-56
2023/11/10 01:57:05;;;;;;;13.30;9.90;;;;;;;4.27;100.00;101205.90;109071;1251;72723;-56
2023/11/10 01:59:33;;;;;;;12.70;10.70;;;;;;;4.28;100.00;101206.25;108967;1254;59801;-56
2023/11/10 02:02:03;;;;;;;12.90;10.90;;;;;;;4.29;100.00;101204.48;109070;1254;60264;-56
2023/11/10 02:04:33;;;;;;;9.80;8.80;;;;;;;4.28;100.00;101202.00;109098;1253;73978;-55
2023/11/10 02:07:01;;;;;;;11.00;9.80;;;;;;;4.28;100.00;101200.21;109065;1251;65683;-56
2023/11/10 02:09:29;;;;;;;12.20;8.50;;;;;;;4.28;100.00;101203.41;106561;1253;3291164;-56
2023/11/10 02:12:57;;;;;;;8.30;7.00;;;;;;;4.24;100.00;101289.60;102250;1292;601515;-57
2023/11/10 02:15:25;;;;;;;8.70;7.90;;;;;;;4.25;100.00;101335.10;108161;1266;61700;-55
2023/11/10 02:17:52;;;;;;;10.50;7.10;;;;;;;4.24;100.00;101302.40;108131;1265;58812;-55
2023/11/10 02:20:20;;;;;;;8.40;7.50;;;;;;;4.23;100.00;101286.94;106475;1268;72334;-55
2023/11/10 02:22:49;;;;;;;13.60;9.20;;;;;;;4.24;100.00;101282.15;104405;1270;67028;-56
2023/11/10 02:25:17;;;;;;;11.70;9.90;;;;;;;4.25;100.00;101278.06;105730;1266;3214875;-57
2023/11/10 02:27:45;;;;;;;13.20;11.00;;;;;;;4.25;100.00;101268.64;105442;1269;59334;-55
2023/11/10 02:30:12;;;;;;;13.90;11.80;;;;;;;4.24;100.00;101265.44;105163;1254;58754;-53
2023/11/10 02:32:42;;;;;;;17.00;10.80;;;;;;;4.21;100.00;101265.25;105287;1260;72449;-55
2023/11/10 02:35:11;;;;;;;11.80;10.30;;;;;;;4.18;100.00;101263.46;105167;1254;66181;-55
2023/11/10 02:37:39;;;;;;;9.80;8.80;;;;;;;4.15;100.00;101253.00;105280;1260;72724;-55
2023/11/10 02:40:08;;;;;;;9.20;8.30;;;;;;;4.14;100.00;101252.27;108551;1254;59730;-55
2023/11/10 02:42:36;;;;;;;11.60;10.30;;;;;;;4.12;100.00;101248.18;108810;1259;58927;-57
2023/11/10 02:45:05;;;;;;;10.20;8.80;;;;;;;4.12;100.00;101244.63;108755;1254;74609;-56
2023/11/10 02:47:33;;;;;;;9.80;8.10;;;;;;;4.11;100.00;101241.42;105512;1254;67349;-54
2023/11/10 02:50:01;;;;;;;9.80;8.80;;;;;;;4.10;100.00;101238.58;105363;1260;72087;-55
2023/11/10 02:52:29;;;;;;;11.10;9.60;;;;;;;4.11;100.00;101236.80;105142;1254;61072;-55
2023/11/10 02:54:56;;;;;;;12.40;10.80;;;;;;;4.10;100.00;101232.17;105294;1259;60040;-54
2023/11/10 02:57:23;;;;;;;11.80;10.60;;;;;;;4.08;100.00;101227.04;105336;1254;71026;-52
2023/11/10 02:59:51;;;;;;;12.20;10.30;;;;;;;4.06;100.00;101226.69;105434;1254;66284;-51
2023/11/10 03:02:18;;;;;;;11.30;10.20;;;;;;;4.03;100.00;101224.53;105389;1257;74697;-55
2023/11/10 03:04:46;;;;;;;12.50;9.80;;;;;;;3.99;100.00;101223.82;105295;1260;60691;-49
2023/11/10 03:07:13;;;;;;;12.00;9.80;;;;;;;3.97;100.00;101215.65;105152;1257;59734;-49
2023/11/10 03:09:42;;;;;;;10.30;9.00;;;;;;;3.94;100.00;101210.31;105081;1260;71817;-49
2023/11/10 03:12:10;;;;;;;9.30;8.10;;;;;;;3.94;100.00;101204.44;105417;1261;67255;-54
2023/11/10 03:14:41;;;;;;;11.60;9.70;;;;;;;3.91;100.00;101199.48;105147;1262;73464;-53
2023/11/10 03:17:08;;;;;;;10.40;9.30;;;;;;;3.92;100.00;101202.14;105750;1256;59773;-52
2023/11/10 03:19:36;;;;;;;14.30;9.40;;;;;;;3.91;100.00;101196.10;105247;1260;59887;-52
2023/11/10 03:22:04;;;;;;;9.50;8.20;;;;;;;3.92;100.00;101194.85;105294;1257;72834;-56
2023/11/10 03:24:32;;;;;;;10.00;9.00;;;;;;;3.92;100.00;101193.96;105035;1260;67603;-51
2023/11/10 03:27:01;;;;;;;11.30;8.10;;;;;;;3.92;100.00;101198.93;105440;1257;70468;-53
2023/11/10 03:29:28;;;;;;;10.60;8.60;;;;;;;3.92;100.00;101193.08;105100;1257;60538;-54
2023/11/10 03:31:57;;;;;;;10.50;7.40;;;;;;;3.91;100.00;101194.16;105103;1262;61137;-52
2023/11/10 03:34:25;;;;;;;12.00;9.70;;;;;;;3.91;100.00;101194.34;106395;1261;73582;-51
2023/11/10 03:36:53;;;;;;;11.00;9.30;;;;;;;3.90;100.00;101190.08;105239;1257;66981;-51
2023/11/10 03:39:21;;;;;;;13.00;9.20;;;;;;;3.90;100.00;101195.40;105113;1260;72731;-50
2023/11/10 03:41:48;;;;;;;13.00;10.60;;;;;;;3.88;100.00;101201.43;105085;1263;59621;-55
2023/11/10 03:44:16;;;;;;;11.20;8.70;;;;;;;3.87;100.00;101192.71;106145;1257;60017;-52
2023/11/10 03:46:43;;;;;;;11.20;9.70;;;;;;;3.86;100.00;101190.58;105197;1261;73140;-52
2023/11/10 03:49:11;;;;;;;10.10;8.90;;;;;;;3.84;100.00;101187.38;105003;1262;66247;-53
2023/11/10 03:51:38;;;;;;;8.90;7.80;;;;;;;3.83;100.00;101185.43;106652;1257;71389;-54
2023/11/10 03:54:06;;;;;;;9.40;8.50;;;;;;;3.83;100.00;101186.86;107286;1257;59860;-51
2023/11/10 03:56:35;;;;;;;8.70;7.50;;;;;;;3.82;100.00;101191.13;105011;1257;60121;-50
2023/11/10 03:59:04;;;;;;;11.40;8.10;;;;;;;3.84;100.00;101187.38;108822;1255;71853;-52
2023/11/10 04:01:32;;;;;;;11.00;7.70;;;;;;;3.85;100.00;101187.73;107299;1257;66326;-52
2023/11/10 04:04:00;;;;;;;11.60;6.90;;;;;;;3.87;100.00;101189.16;105482;1257;72946;-51
2023/11/10 04:06:28;;;;;;;10.70;6.50;;;;;;;3.88;100.00;101188.46;107537;1260;61770;-52
2023/11/10 04:09:07;;;;;;;10.60;7.40;;;;;;;3.88;100.00;101188.83;105206;1256;60061;-51
2023/11/10 04:11:34;;;;;;;14.10;8.10;;;;;;;3.90;100.00;101186.70;105044;1260;73989;-53
2023/11/10 04:14:02;;;;;;;8.80;7.50;;;;;;;3.92;100.00;101187.93;105181;1257;66986;-52
2023/11/10 04:16:29;;;;;;;8.90;6.10;;;;;;;3.93;100.00;101188.45;105166;1256;73037;-52
2023/11/10 04:18:57;;;;;;;11.30;6.30;;;;;;;3.94;100.00;101187.21;104981;1260;60458;-53
2023/11/10 04:21:26;;;;;;;9.70;7.40;;;;;;;3.93;100.00;101190.41;105060;1262;59627;-51
2023/11/10 04:23:53;;;;;;;12.90;9.00;;;;;;;3.94;100.00;101191.66;108647;1257;71387;-53
2023/11/10 04:26:22;;;;;;;10.50;7.30;;;;;;;3.94;100.00;101194.32;104949;1261;66957;-54
2023/11/10 04:28:50;;;;;;;11.20;8.90;;;;;;;3.93;100.00;101192.55;105057;1257;71446;-53
2023/11/10 04:31:17;;;;;;;13.20;9.00;;;;;;;3.92;100.00;101190.95;105008;1261;59771;-52
2023/11/10 04:33:45;;;;;;;18.00;8.80;;;;;;;3.90;100.00;101192.03;104588;1257;59721;-51
2023/11/10 04:36:12;;;;;;;9.90;7.90;;;;;;;3.89;100.00;101194.15;104439;1257;73143;-50
2023/11/10 04:38:43;;;;;;;9.50;7.80;;;;;;;3.86;100.00;101188.27;104290;1257;65862;-55
2023/11/10 04:41:11;;;;;;;10.30;7.30;;;;;;;3.83;100.00;101188.63;108806;1257;72904;-56
2023/11/10 04:43:40;;;;;;;8.10;6.50;;;;;;;3.79;100.00;101188.63;108837;1256;61447;-54
2023/11/10 04:46:08;;;;;;;7.70;5.80;;;;;;;3.77;100.00;101186.48;108736;1261;59055;-54
2023/11/10 04:48:35;;;;;;;14.50;7.60;;;;;;;3.76;100.00;101183.45;108834;1257;73276;-53
2023/11/10 04:51:03;;;;;;;7.80;7.00;;;;;;;3.75;100.00;101182.92;108752;1257;65955;-54
2023/11/10 04:53:30;;;;;;;11.70;5.90;;;;;;;3.74;100.00;101182.73;108731;1257;72553;-53
2023/11/10 04:56:00;;;;;;;9.90;8.20;;;;;;;3.76;100.00;101180.80;107519;1257;59659;-51
2023/11/10 04:58:29;;;;;;;6.40;5.40;;;;;;;3.76;100.00;101182.57;104898;1261;59643;-51
2023/11/10 05:00:57;;;;;;;11.20;6.50;;;;;;;3.77;100.00;101183.64;108680;1256;73172;-52
2023/11/10 05:03:25;;;;;;;8.40;6.30;;;;;;;3.78;100.00;101179.20;108760;1257;65762;-53
2023/11/10 05:05:53;;;;;;;10.70;7.10;;;;;;;3.79;100.00;101185.96;108161;1257;74045;-52
2023/11/10 05:08:21;;;;;;;8.00;6.60;;;;;;;3.81;100.00;101187.22;105252;1257;60501;-51
2023/11/10 05:10:49;;;;;;;8.70;7.40;;;;;;;3.83;100.00;101190.05;105275;1258;59803;-54
2023/11/10 05:13:16;;;;;;;8.30;7.30;;;;;;;3.84;100.00;101190.58;105189;1260;75447;-53
2023/11/10 05:15:43;;;;;;;6.90;6.00;;;;;;;3.84;100.00;101191.64;104913;1257;67175;-53
2023/11/10 05:18:14;;;;;;;7.30;6.10;;;;;;;3.86;100.00;101194.66;104461;1257;71406;-51
2023/11/10 05:21:02;;;;;;;6.50;5.90;;;;;;;3.86;100.00;101201.40;104430;1257;60153;-54
2023/11/10 05:23:29;;;;;;;10.10;6.80;;;;;;;3.86;100.00;101195.55;105134;1260;60084;-52
2023/11/10 05:25:57;;;;;;;8.10;7.30;;;;;;;3.85;100.00;101192.70;105132;1255;73068;-49
2023/11/10 05:28:24;;;;;;;9.30;7.10;;;;;;;3.85;100.00;101193.77;105226;1257;67437;-52
2023/11/10 05:30:53;;;;;;;6.70;6.20;;;;;;;3.84;100.00;101194.12;104959;1257;73022;-54
2023/11/10 05:33:22;;;;;;;9.80;7.40;;;;;;;3.83;100.00;101199.45;105175;1262;61951;-51
2023/11/10 05:35:50;;;;;;;6.30;5.70;;;;;;;3.82;100.00;101198.95;105474;1260;59850;-51
2023/11/10 05:38:17;;;;;;;7.00;5.90;;;;;;;3.82;100.00;101199.83;105005;1263;73694;-53
2023/11/10 05:40:45;;;;;;;6.90;6.20;;;;;;;3.83;100.00;101200.72;105044;1260;65499;-52
2023/11/10 05:43:14;;;;;;;8.60;7.40;;;;;;;3.85;100.00;101202.65;104825;1257;72639;-52
2023/11/10 05:45:41;;;;;;;8.70;7.00;;;;;;;3.84;100.00;101199.27;105122;1256;59752;-51
2023/11/10 05:48:10;;;;;;;8.50;7.60;;;;;;;3.86;100.00;101199.29;108670;1255;58852;-55
2023/11/10 05:50:38;;;;;;;6.60;6.00;;;;;;;3.89;100.00;101201.26;104941;1262;73572;-52
2023/11/10 05:53:06;;;;;;;7.70;6.90;;;;;;;3.93;100.00;101203.20;104973;1257;66934;-50
2023/11/10 05:55:34;;;;;;;6.40;5.80;;;;;;;3.97;100.00;101207.66;104946;1258;71264;-53
2023/11/10 05:58:01;;;;;;;10.80;5.50;;;;;;;4.02;100.00;101208.89;105194;1261;60873;-52
2023/11/10 06:00:29;;;;;;;6.80;6.20;;;;;;;4.07;100.00;101207.85;105156;1257;60073;-52
2023/11/10 06:02:57;;;;;;;8.40;5.80;;;;;;;4.13;100.00;101210.16;105047;1257;71832;-50
2023/11/10 06:05:25;;;;;;;6.50;5.90;;;;;;;4.17;100.00;101213.54;106092;1261;66071;-48
2023/11/10 06:07:54;;;;;;;5.60;5.10;;;;;;;4.22;100.00;101217.64;104828;1257;72735;-51
2023/11/10 06:10:22;;;;;;;5.80;5.30;;;;;;;4.28;100.00;101231.67;104938;1260;61697;-54
2023/11/10 06:12:52;;;;;;;6.50;5.90;;;;;;;4.34;100.00;101232.39;104637;1257;60280;-52
2023/11/10 06:15:20;;;;;;;7.80;5.00;;;;;;;4.39;100.00;101234.00;104884;1257;73132;-53
2023/11/10 06:17:51;;;;;;;8.20;6.20;;;;;;;4.44;100.00;101232.21;104841;1257;66949;-53
2023/11/10 06:20:20;;;;;;;7.70;5.40;;;;;;;4.49;100.00;101239.68;105083;1263;71478;-52
2023/11/10 06:22:48;;;;;;;6.00;4.30;;;;;;;4.53;100.00;101244.30;108736;1256;60463;-54
2023/11/10 06:25:15;;;;;;;6.20;5.50;;;;;;;4.60;100.00;101244.83;105146;1262;60526;-53
2023/11/10 06:27:44;;;;;;;10.60;5.50;;;;;;;4.66;100.00;101248.75;104776;1257;73903;-51
2023/11/10 06:30:12;;;;;;;7.60;5.20;;;;;;;4.73;100.00;101253.02;105018;1260;67396;-54
2023/11/10 06:32:40;;;;;;;4.50;4.10;;;;;;;4.79;100.00;101252.82;104583;1257;74767;-54
2023/11/10 06:35:09;;;;;;;5.60;5.10;;;;;;;4.86;100.00;101251.56;104418;1259;61782;-53
2023/11/10 06:37:37;;;;;;;6.40;4.20;;;;;;;4.95;100.00;101257.79;105452;1257;60337;-55
2023/11/10 06:40:05;;;;;;;4.50;4.00;;;;;;;5.04;100.00;101261.51;105069;1260;74254;-54
2023/11/10 06:42:33;;;;;;;7.10;4.00;;;;;;;5.12;100.00;101262.20;106260;1260;66354;-51
2023/11/10 06:45:02;;;;;;;6.40;4.60;;;;;;;5.20;100.00;101265.03;108705;1257;73067;-52
2023/11/10 06:47:30;;;;;;;4.20;3.80;;;;;;;5.27;100.00;101266.43;107193;1257;64103;-55
2023/11/10 06:49:57;;;;;;;5.30;3.80;;;;;;;5.35;100.00;101270.86;105356;1257;60577;-53
2023/11/10 06:52:25;;;;;;;6.20;4.80;;;;;;;5.43;100.00;101277.24;104884;1257;73812;-51
2023/11/10 06:54:52;;;;;;;8.60;3.60;;;;;;;5.49;100.00;101279.19;105158;1258;66931;-51
2023/11/10 06:57:22;;;;;;;4.80;4.10;;;;;;;5.56;100.00;101287.52;108704;1257;72131;-53
2023/11/10 06:59:50;;;;;;;4.30;3.80;;;;;;;5.64;100.00;101288.56;105849;1257;60816;-49
2023/11/10 07:02:19;;;;;;;5.50;4.10;;;;;;;5.71;100.00;101298.52;105148;1256;60666;-54
2023/11/10 07:04:47;;;;;;;4.30;3.80;;;;;;;5.77;100.00;101302.95;105379;1263;73922;-54
2023/11/10 07:07:14;;;;;;;4.70;3.30;;;;;;;5.84;100.00;101313.43;105371;1254;66751;-51
2023/11/10 07:09:42;;;;;;;8.10;3.80;;;;;;;5.91;100.00;101319.48;105272;1257;71996;-49
2023/11/10 07:12:09;;;;;;;7.60;3.20;;;;;;;5.98;100.00;101323.73;105271;1257;60486;-51
2023/11/10 07:14:37;;;;;;;4.10;2.70;;;;;;;6.05;100.00;101327.61;105397;1254;60428;-54
2023/11/10 07:17:05;;;;;;;4.80;2.90;;;;;;;6.12;100.00;101332.56;105331;1258;74536;-51
2023/11/10 07:19:32;;;;;;;3.70;3.40;;;;;;;6.18;100.00;101333.80;105219;1259;67020;-51
2023/11/10 07:22:00;;;;;;;4.20;3.40;;;;;;;6.25;100.00;101338.74;104693;1259;73374;-51
2023/11/10 07:24:27;;;;;;;5.70;3.10;;;;;;;6.33;100.00;101342.08;104668;1254;60412;-53
2023/11/10 07:26:54;;;;;;;2.50;2.30;;;;;;;6.42;100.00;101351.83;104913;1254;60894;-52
2023/11/10 07:29:22;;;;;;;4.20;2.80;;;;;;;6.52;100.00;101354.63;105187;1260;74190;-51
2023/11/10 07:31:51;;;;;;;2.60;2.30;;;;;;;6.62;100.00;101358.30;105310;1259;67073;-54
2023/11/10 07:34:19;;;;;;;3.20;2.10;;;;;;;6.74;100.00;101367.67;108847;1254;72013;-50
2023/11/10 07:36:46;;;;;;;3.30;1.70;;;;;;;6.86;100.00;101377.77;108964;1254;60444;-53
2023/11/10 07:39:14;;;;;;;4.90;2.10;;;;;;;6.97;100.00;101385.17;108906;1254;60133;-50
2023/11/10 07:41:41;;;;;;;5.30;2.00;;;;;;;7.08;100.00;101393.13;108900;1254;74366;-50
2023/11/10 07:44:10;;;;;;;4.60;2.40;;;;;;;7.17;100.00;101398.94;108955;1254;66091;-51
2023/11/10 07:46:38;;;;;;;2.30;1.80;;;;;;;7.28;100.00;101409.20;108966;1254;72715;-52
2023/11/10 07:49:05;;;;;;;3.30;2.40;;;;;;;7.40;100.00;101422.67;108891;1257;60432;-51
2023/11/10 07:51:33;;;;;;;5.40;1.60;;;;;;;7.52;100.00;101429.35;108924;1254;58830;-51
2023/11/10 07:54:00;;;;;;;2.10;1.70;;;;;;;7.65;100.00;101443.16;109024;1254;73890;-50
2023/11/10 07:56:28;;;;;;;3.90;1.50;;;;;;;7.78;100.00;101458.05;109037;1256;66937;-53
2023/11/10 07:58:55;;;;;;;1.70;1.50;;;;;;;7.88;100.00;101470.09;108895;1254;71451;-51
2023/11/10 08:01:23;;;;;;;3.00;1.60;;;;;;;8.02;100.00;101483.37;108938;1257;61726;-51
2023/11/10 08:03:50;;;;;;;1.90;1.00;;;;;;;8.14;100.00;101492.00;109124;1255;58832;-56
2023/11/10 08:06:18;;;;;;;3.20;1.30;;;;;;;8.28;100.00;101513.14;109006;1254;73838;-50
2023/11/10 08:08:45;;;;;;;1.60;1.10;;;;;;;8.42;100.00;101529.46;109017;1254;66968;-52
2023/11/10 08:11:14;;;;;;;1.70;1.00;;;;;;;8.55;100.00;101540.76;108981;1254;71436;-51
2023/11/10 08:13:41;;;;;;;1.50;1.00;;;;;;;8.67;100.00;101553.86;109008;1259;60033;-52
2023/11/10 08:16:09;;;;;;;1.60;1.20;;;;;;;8.80;100.00;101569.27;108935;1254;60117;-53
2023/11/10 08:18:37;;;;;;;2.70;1.00;;;;;;;8.93;100.00;101583.08;108971;1254;73592;-53
2023/11/10 08:21:07;;;;;;;2.70;1.20;;;;;;;9.03;100.00;101601.20;108996;1254;67724;-52
2023/11/10 08:23:36;;;;;;;1.20;0.80;;;;;;;9.11;100.00;101619.36;106775;1259;71945;-50
2023/11/10 08:26:04;;;;;;;1.50;1.00;;;;;;;9.18;100.00;101632.91;105326;1259;63664;-54
2023/11/10 08:28:31;;;;;;;1.50;0.90;;;;;;;9.24;100.00;101638.55;105304;1260;60737;-52
2023/11/10 08:30:59;;;;;;;1.30;0.90;;;;;;;9.31;100.00;101651.01;105320;1258;73005;-49
2023/11/10 08:33:26;;;;;;;1.30;0.80;;;;;;;9.38;100.00;101653.42;105309;1254;66008;-52
2023/11/10 08:35:54;;;;;;;2.30;0.90;;;;;;;9.45;100.00;101665.15;105496;1260;72995;-51
2023/11/10 08:38:22;;;;;;;1.00;0.80;;;;;;;9.50;100.00;101674.77;105101;1260;60207;-53
2023/11/10 08:40:49;;;;;;;1.20;1.00;;;;;;;9.55;100.00;101685.63;105341;1254;60568;-54
2023/11/10 08:43:17;;;;;;;1.30;1.10;;;;;;;9.61;100.00;101697.91;105288;1267;74344;-51
2023/11/10 08:45:44;;;;;;;4.50;1.00;;;;;;;9.68;100.00;101704.45;105087;1260;65775;-53
2023/11/10 08:48:12;;;;;;;1.30;1.00;;;;;;;9.75;100.00;101711.17;104828;1259;72700;-53
2023/11/10 08:50:39;;;;;;;1.50;0.90;;;;;;;9.82;100.00;101718.23;104559;1260;60422;-54
2023/11/10 08:53:09;;;;;;;1.50;1.00;;;;;;;9.90;100.00;101731.21;105068;1257;60480;-54
2023/11/10 08:55:37;;;;;;;2.80;0.90;;;;;;;9.96;100.00;101746.01;108979;1254;73523;-53
2023/11/10 08:58:05;;;;;;;2.50;1.00;;;;;;;10.00;100.00;101756.38;105273;1259;67422;-49
2023/11/10 09:00:32;;;;;;;1.10;0.90;;;;;;;10.02;100.00;101769.98;104941;1259;73048;-52
2023/11/10 09:03:00;;;;;;;2.10;1.10;;;;;;;10.04;100.00;101774.58;104837;1263;62636;-53
2023/11/10 09:05:28;;;;;;;3.00;1.10;;;;;;;10.08;100.00;101782.62;104902;1259;60831;-54
2023/11/10 09:07:55;;;;;;;1.40;0.90;;;;;;;10.13;100.00;101790.45;104833;1260;74426;-50
2023/11/10 09:10:23;;;;;;;1.50;0.90;;;;;;;10.19;100.00;101804.02;104607;1259;67691;-55
2023/11/10 09:12:51;;;;;;;3.20;0.90;;;;;;;10.24;100.00;101811.30;105894;1260;70986;-54
2023/11/10 09:15:18;;;;;;;1.20;0.90;;;;;;;10.29;100.00;101820.92;105217;1257;61239;-53
2023/11/10 09:17:49;;;;;;;2.80;0.80;;;;;;;10.33;100.00;101829.13;104815;1259;60475;-52
2023/11/10 09:20:17;;;;;;;1.80;1.00;;;;;;;10.36;100.00;101840.20;104776;1254;73903;-53
2023/11/10 09:22:44;;;;;;;1.40;0.80;;;;;;;10.39;100.00;101848.41;105486;1260;68441;-52
2023/11/10 09:25:19;;;;;;;1.40;0.80;;;;;;;10.40;100.00;101858.98;105483;1267;72041;-53
2023/11/10 09:27:47;;;;;;;1.00;0.80;;;;;;;10.42;100.00;101873.50;105476;1261;61089;-52
2023/11/10 09:30:15;;;;;;;1.20;1.00;;;;;;;10.45;100.00;101877.77;108838;1254;58829;-53
2023/11/10 09:32:42;;;;;;;3.30;0.80;;;;;;;10.51;100.00;101887.73;106468;1256;73907;-51
2023/11/10 09:35:16;;;;;;;1.30;1.20;;;;;;;10.57;100.00;101889.98;105253;1260;66902;-52
2023/11/10 09:37:47;;;;;;;2.40;0.90;;;;;;;10.62;100.00;101911.45;107240;1256;73002;-54
2023/11/10 09:40:16;;;;;;;1.40;0.90;;;;;;;10.65;100.00;101910.68;108502;1256;60578;-49
2023/11/10 09:42:43;;;;;;;3.20;1.10;;;;;;;10.68;100.00;101915.68;105188;1259;60521;-52
2023/11/10 09:45:14;;;;;;;1.80;0.90;;;;;;;10.71;100.00;101922.11;104601;1256;74203;-53
2023/11/10 09:47:42;;;;;;;1.10;0.90;;;;;;;10.75;100.00;101930.48;104484;1260;65721;-54
2023/11/10 09:50:10;;;;;;;1.70;0.90;;;;;;;10.78;100.00;101933.14;104841;1254;71016;-55
2023/11/10 09:52:38;;;;;;;1.40;0.90;;;;;;;10.78;100.00;101939.42;104793;1260;61759;-53
2023/11/10 09:55:06;;;;;;;2.00;0.70;;;;;;;10.78;100.00;101942.30;105224;1259;60534;-51
2023/11/10 09:57:34;;;;;;;1.10;0.80;;;;;;;10.79;100.00;101946.60;105721;1260;74820;-53
2023/11/10 10:00:03;;;;;;;5.00;0.70;;;;;;;10.80;100.00;101953.95;105267;1260;65730;-55
2023/11/10 10:02:31;;;;;;;1.00;0.80;;;;;;;10.81;100.00;101969.16;105275;1260;72684;-53
2023/11/10 10:05:03;;;;;;;3.00;0.70;;;;;;;10.82;100.00;101980.12;107460;1259;59780;-52
2023/11/10 10:07:31;;;;;;;1.20;0.80;;;;;;;10.80;100.00;101975.13;104597;1259;60555;-53
2023/11/10 10:09:58;;;;;;;1.00;0.80;;;;;;;10.78;100.00;101978.05;104579;1255;74053;-55
2023/11/10 10:12:28;;;;;;;0.90;0.80;;;;;;;10.76;100.00;101981.83;106286;1257;67753;-55
2023/11/10 10:14:56;;;;;;;1.50;0.70;;;;;;;10.75;100.00;101985.61;108098;1257;73029;-53
2023/11/10 10:17:36;;;;;;;1.80;0.70;;;;;;;10.72;100.00;101981.16;105109;1260;60398;-55
2023/11/10 10:20:14;;;;;;;1.00;0.80;;;;;;;10.70;100.00;101993.77;105636;1266;60399;-55
2023/11/10 10:22:45;;;;;;;0.90;0.70;;;;;;;10.70;100.00;101994.67;107862;1260;73923;-54
2023/11/10 10:25:14;;;;;;;1.70;0.80;;;;;;;10.71;100.00;101987.10;108982;1254;65508;-51
2023/11/10 10:27:42;;;;;;;1.60;0.80;;;;;;;10.75;100.00;101984.17;108994;1257;73656;-53
2023/11/10 10:30:10;;;;;;;2.80;0.80;;;;;;;10.79;100.00;101984.67;109079;1258;60331;-51
2023/11/10 10:32:38;;;;;;;0.80;0.70;;;;;;;10.84;100.00;101980.99;108969;1258;58800;-54
2023/11/10 10:35:07;;;;;;;1.70;0.70;;;;;;;10.88;100.00;101987.95;108989;1258;73244;-52
2023/11/10 10:37:35;;;;;;;1.00;0.70;;;;;;;10.92;100.00;101994.52;109044;1254;67504;-53
2023/11/10 10:40:05;;;;;;;1.70;0.70;;;;;;;10.95;100.00;101989.65;108879;1254;72728;-54
2023/11/10 10:42:34;;;;;;;1.20;0.70;;;;;;;10.98;100.00;101997.67;108849;1254;60156;-53
2023/11/10 10:45:04;;;;;;;2.50;0.70;;;;;;;11.01;100.00;102007.69;108962;1254;60118;-50
2023/11/10 10:47:36;;;;;;;0.90;0.70;;;;;;;11.06;100.00;102016.25;109030;1254;74824;-52
2023/11/10 10:50:06;;;;;;;1.00;0.80;;;;;;;11.09;100.00;102021.95;108969;1254;65540;-53
2023/11/10 10:52:33;;;;;;;1.00;0.70;;;;;;;11.11;100.00;102026.06;109004;1254;72389;-53
2023/11/10 10:55:09;;;;;;;0.90;0.70;;;;;;;11.10;100.00;102024.10;108973;1254;60132;-51
2023/11/10 10:57:39;;;;;;;1.10;0.70;;;;;;;11.10;100.00;102033.62;105954;1254;60202;-52
2023/11/10 11:00:15;;;;;;;1.80;0.90;;;;;;;11.09;100.00;102025.90;105189;1255;72283;-55
2023/11/10 11:02:48;;;;;;;3.60;0.80;;;;;;;11.09;100.00;102038.48;108983;1254;67903;-53
2023/11/10 11:05:21;;;;;;;2.10;1.20;;;;;;;11.10;100.00;102032.36;108808;1258;73096;-54
2023/11/10 11:08:02;;;;;;;1.40;0.90;;;;;;;11.09;100.00;102032.02;108893;1254;62169;-54
2023/11/10 11:10:29;;;;;;;1.00;0.80;;;;;;;11.10;100.00;102043.86;108942;1254;60071;-55
2023/11/10 11:13:38;;;;;;;2.40;0.80;;;;;;;11.12;100.00;102035.94;108982;1254;73865;-54
2023/11/10 11:16:15;;;;;;;2.00;0.70;;;;;;;11.14;100.00;102078.48;108417;1264;68637;-54
2023/11/10 11:18:55;;;;;;;1.10;0.70;;;;;;;11.16;100.00;102062.45;108231;1254;73558;-54